sensor_id;sensor_type;location;lat;lon;timestamp;temperature;humidity
52275;DHT22;38228;50.940;4.024;2023-03-01T00:00:11;1.20;99.90
52275;DHT22;38228;50.940;4.024;2023-03-01T00:02:36;1.20;99.90
52275;DHT22;38228;50.940;4.024;2023-03-01T00:05:02;1.20;99.90
52275;DHT22;38228;50.940;4.024;2023-03-01T00:07:28;1.00;99.90
52275;DHT22;38228;50.940;4.024;2023-03-01T00:09:53;0.70;99.90
52275;DHT22;38228;50.940;4.024;2023-03-01T00:12:19;0.50;99.90
52275;DHT22;38228;50.940;4.024;2023-03-01T00:14:45;0.50;99.90
52275;DHT22;38228;50.940;4.024;2023-03-01T00:17:10;0.40;99.90
52275;DHT22;38228;50.940;4.024;2023-03-01T00:19:36;0.50;99.90
52275;DHT22;38228;50.940;4.024;2023-03-01T00:22:01;0.60;99.90
52275;DHT22;38228;50.940;4.024;2023-03-01T00:24:27;0.80;99.90
52275;DHT22;38228;50.940;4.024;2023-03-01T00:26:53;0.60;99.90
52275;DHT22;38228;50.940;4.024;2023-03-01T00:29:21;0.60;99.90
52275;DHT22;38228;50.940;4.024;2023-03-01T00:31:46;0.50;99.90
52275;DHT22;38228;50.940;4.024;2023-03-01T00:34:12;0.60;99.90
52275;DHT22;38228;50.940;4.024;2023-03-01T00:36:37;0.50;99.90
52275;DHT22;38228;50.940;4.024;2023-03-01T00:39:04;0.50;99.90
52275;DHT22;38228;50.940;4.024;2023-03-01T00:41:30;0.50;99.90
52275;DHT22;38228;50.940;4.024;2023-03-01T00:43:55;0.40;99.90
52275;DHT22;38228;50.940;4.024;2023-03-01T00:46:22;0.40;99.90
52275;DHT22;38228;50.940;4.024;2023-03-01T00:48:48;0.50;99.90
52275;DHT22;38228;50.940;4.024;2023-03-01T00:51:14;0.40;99.90
52275;DHT22;38228;50.940;4.024;2023-03-01T00:53:41;0.30;99.90
52275;DHT22;38228;50.940;4.024;2023-03-01T00:56:07;0.20;99.90
52275;DHT22;38228;50.940;4.024;2023-03-01T00:58:34;0.10;99.90
52275;DHT22;38228;50.940;4.024;2023-03-01T01:00:59;0.40;99.90
52275;DHT22;38228;50.940;4.024;2023-03-01T01:03:25;0.70;99.90
52275;DHT22;38228;50.940;4.024;2023-03-01T01:05:51;1.10;99.90
52275;DHT22;38228;50.940;4.024;2023-03-01T01:08:17;1.60;99.90
52275;DHT22;38228;50.940;4.024;2023-03-01T01:10:43;1.50;99.90
52275;DHT22;38228;50.940;4.024;2023-03-01T01:13:09;1.60;99.90
52275;DHT22;38228;50.940;4.024;2023-03-01T01:15:35;1.50;99.90
52275;DHT22;38228;50.940;4.024;2023-03-01T01:18:01;1.50;99.90
52275;DHT22;38228;50.940;4.024;2023-03-01T01:20:26;1.60;99.90
52275;DHT22;38228;50.940;4.024;2023-03-01T01:22:52;1.60;99.90
52275;DHT22;38228;50.940;4.024;2023-03-01T01:25:17;1.60;99.90
52275;DHT22;38228;50.940;4.024;2023-03-01T01:27:43;1.60;99.90
52275;DHT22;38228;50.940;4.024;2023-03-01T01:30:09;1.60;99.90
52275;DHT22;38228;50.940;4.024;2023-03-01T01:32:34;1.50;99.90
52275;DHT22;38228;50.940;4.024;2023-03-01T01:35:00;1.40;99.90
52275;DHT22;38228;50.940;4.024;2023-03-01T01:37:25;1.30;99.90
52275;DHT22;38228;50.940;4.024;2023-03-01T01:39:57;1.20;99.90
52275;DHT22;38228;50.940;4.024;2023-03-01T01:42:23;1.10;99.90
52275;DHT22;38228;50.940;4.024;2023-03-01T01:45:15;1.30;99.90
52275;DHT22;38228;50.940;4.024;2023-03-01T01:47:34;1.40;99.90
52275;DHT22;38228;50.940;4.024;2023-03-01T01:49:59;1.50;99.90
52275;DHT22;38228;50.940;4.024;2023-03-01T01:55:08;1.20;99.90
52275;DHT22;38228;50.940;4.024;2023-03-01T01:57:40;1.00;99.90
52275;DHT22;38228;50.940;4.024;2023-03-01T02:00:08;1.10;99.90
52275;DHT22;38228;50.940;4.024;2023-03-01T02:02:36;1.20;99.90
52275;DHT22;38228;50.940;4.024;2023-03-01T02:05:04;1.20;99.90
52275;DHT22;38228;50.940;4.024;2023-03-01T02:07:35;1.10;99.90
52275;DHT22;38228;50.940;4.024;2023-03-01T02:10:02;1.10;99.90
52275;DHT22;38228;50.940;4.024;2023-03-01T02:12:27;0.80;99.90
52275;DHT22;38228;50.940;4.024;2023-03-01T02:14:53;0.90;99.90
52275;DHT22;38228;50.940;4.024;2023-03-01T02:17:19;1.00;99.90
52275;DHT22;38228;50.940;4.024;2023-03-01T02:22:24;0.40;99.90
52275;DHT22;38228;50.940;4.024;2023-03-01T02:27:19;-0.10;99.90
52275;DHT22;38228;50.940;4.024;2023-03-01T02:29:50;-0.10;99.90
52275;DHT22;38228;50.940;4.024;2023-03-01T02:32:15;-0.20;99.90
52275;DHT22;38228;50.940;4.024;2023-03-01T02:34:47;-0.30;99.90
52275;DHT22;38228;50.940;4.024;2023-03-01T02:37:13;-0.30;99.90
52275;DHT22;38228;50.940;4.024;2023-03-01T02:39:41;-0.30;99.90
52275;DHT22;38228;50.940;4.024;2023-03-01T02:42:09;-0.30;99.90
52275;DHT22;38228;50.940;4.024;2023-03-01T02:44:36;-0.30;99.90
52275;DHT22;38228;50.940;4.024;2023-03-01T02:47:02;-0.10;99.90
52275;DHT22;38228;50.940;4.024;2023-03-01T02:49:29;0.20;99.90
52275;DHT22;38228;50.940;4.024;2023-03-01T02:52:07;0.50;99.90
52275;DHT22;38228;50.940;4.024;2023-03-01T02:54:41;0.80;99.90
52275;DHT22;38228;50.940;4.024;2023-03-01T02:57:08;0.90;99.90
52275;DHT22;38228;50.940;4.024;2023-03-01T02:59:34;0.90;99.90
52275;DHT22;38228;50.940;4.024;2023-03-01T03:02:05;1.00;99.90
52275;DHT22;38228;50.940;4.024;2023-03-01T03:04:30;1.20;99.90
52275;DHT22;38228;50.940;4.024;2023-03-01T03:06:57;1.10;99.90
52275;DHT22;38228;50.940;4.024;2023-03-01T03:09:22;0.90;99.90
52275;DHT22;38228;50.940;4.024;2023-03-01T03:11:48;0.90;99.90
52275;DHT22;38228;50.940;4.024;2023-03-01T03:14:14;1.00;99.90
52275;DHT22;38228;50.940;4.024;2023-03-01T03:16:41;0.90;99.90
52275;DHT22;38228;50.940;4.024;2023-03-01T03:19:07;0.90;99.90
52275;DHT22;38228;50.940;4.024;2023-03-01T03:21:33;0.90;99.90
52275;DHT22;38228;50.940;4.024;2023-03-01T03:23:58;0.80;99.90
52275;DHT22;38228;50.940;4.024;2023-03-01T03:26:24;0.90;99.90
52275;DHT22;38228;50.940;4.024;2023-03-01T03:28:50;0.60;99.90
52275;DHT22;38228;50.940;4.024;2023-03-01T03:31:15;0.60;99.90
52275;DHT22;38228;50.940;4.024;2023-03-01T03:33:41;0.90;99.90
52275;DHT22;38228;50.940;4.024;2023-03-01T03:36:07;0.90;99.90
52275;DHT22;38228;50.940;4.024;2023-03-01T03:38:40;0.90;99.90
52275;DHT22;38228;50.940;4.024;2023-03-01T03:41:06;0.70;99.90
52275;DHT22;38228;50.940;4.024;2023-03-01T03:43:33;0.70;99.90
52275;DHT22;38228;50.940;4.024;2023-03-01T03:45:59;0.70;99.90
52275;DHT22;38228;50.940;4.024;2023-03-01T03:48:24;0.60;99.90
52275;DHT22;38228;50.940;4.024;2023-03-01T03:50:51;0.40;99.90
52275;DHT22;38228;50.940;4.024;2023-03-01T03:53:17;0.40;99.90
52275;DHT22;38228;50.940;4.024;2023-03-01T03:55:43;0.40;99.90
52275;DHT22;38228;50.940;4.024;2023-03-01T03:58:10;0.50;99.90
52275;DHT22;38228;50.940;4.024;2023-03-01T04:00:36;0.50;99.90
52275;DHT22;38228;50.940;4.024;2023-03-01T04:03:02;0.50;99.90
52275;DHT22;38228;50.940;4.024;2023-03-01T04:05:28;0.50;99.90
52275;DHT22;38228;50.940;4.024;2023-03-01T04:07:54;0.40;99.90
52275;DHT22;38228;50.940;4.024;2023-03-01T04:10:30;0.40;99.90
52275;DHT22;38228;50.940;4.024;2023-03-01T04:12:56;0.30;99.90
52275;DHT22;38228;50.940;4.024;2023-03-01T04:15:22;0.30;99.90
52275;DHT22;38228;50.940;4.024;2023-03-01T04:17:50;0.30;99.90
52275;DHT22;38228;50.940;4.024;2023-03-01T04:20:17;0.40;99.90
52275;DHT22;38228;50.940;4.024;2023-03-01T04:22:43;0.30;99.90
52275;DHT22;38228;50.940;4.024;2023-03-01T04:25:12;0.30;99.90
52275;DHT22;38228;50.940;4.024;2023-03-01T04:27:39;0.40;99.90
52275;DHT22;38228;50.940;4.024;2023-03-01T04:30:05;0.40;99.90
52275;DHT22;38228;50.940;4.024;2023-03-01T04:32:31;0.30;99.90
52275;DHT22;38228;50.940;4.024;2023-03-01T04:34:56;0.30;99.90
52275;DHT22;38228;50.940;4.024;2023-03-01T04:37:22;0.30;99.90
52275;DHT22;38228;50.940;4.024;2023-03-01T04:39:49;0.40;99.90
52275;DHT22;38228;50.940;4.024;2023-03-01T04:42:15;0.40;99.90
52275;DHT22;38228;50.940;4.024;2023-03-01T04:44:40;0.30;99.90
52275;DHT22;38228;50.940;4.024;2023-03-01T04:47:06;0.30;99.90
52275;DHT22;38228;50.940;4.024;2023-03-01T04:49:31;0.20;99.90
52275;DHT22;38228;50.940;4.024;2023-03-01T04:51:57;0.30;99.90
52275;DHT22;38228;50.940;4.024;2023-03-01T04:54:32;0.30;99.90
52275;DHT22;38228;50.940;4.024;2023-03-01T04:56:58;0.30;99.90
52275;DHT22;38228;50.940;4.024;2023-03-01T04:59:24;0.30;99.90
52275;DHT22;38228;50.940;4.024;2023-03-01T05:01:53;0.30;99.90
52275;DHT22;38228;50.940;4.024;2023-03-01T05:04:22;0.30;99.90
52275;DHT22;38228;50.940;4.024;2023-03-01T05:06:48;0.30;99.90
52275;DHT22;38228;50.940;4.024;2023-03-01T05:09:14;0.40;99.90
52275;DHT22;38228;50.940;4.024;2023-03-01T05:11:40;0.40;99.90
52275;DHT22;38228;50.940;4.024;2023-03-01T05:14:06;0.40;99.90
52275;DHT22;38228;50.940;4.024;2023-03-01T05:16:32;0.40;99.90
52275;DHT22;38228;50.940;4.024;2023-03-01T05:18:58;0.30;99.90
52275;DHT22;38228;50.940;4.024;2023-03-01T05:21:24;0.10;99.90
52275;DHT22;38228;50.940;4.024;2023-03-01T05:23:49;0.00;99.90
52275;DHT22;38228;50.940;4.024;2023-03-01T05:26:16;0.00;99.90
52275;DHT22;38228;50.940;4.024;2023-03-01T05:28:43;-0.10;99.90
52275;DHT22;38228;50.940;4.024;2023-03-01T05:31:10;-0.10;99.90
52275;DHT22;38228;50.940;4.024;2023-03-01T05:33:36;-0.10;99.90
52275;DHT22;38228;50.940;4.024;2023-03-01T05:36:03;-0.20;99.90
52275;DHT22;38228;50.940;4.024;2023-03-01T05:38:29;-0.20;99.90
52275;DHT22;38228;50.940;4.024;2023-03-01T05:40:54;-0.10;99.90
52275;DHT22;38228;50.940;4.024;2023-03-01T05:43:20;-0.10;99.90
52275;DHT22;38228;50.940;4.024;2023-03-01T05:45:46;0.00;99.90
52275;DHT22;38228;50.940;4.024;2023-03-01T05:48:12;0.00;99.90
52275;DHT22;38228;50.940;4.024;2023-03-01T05:50:39;0.00;99.90
52275;DHT22;38228;50.940;4.024;2023-03-01T05:53:06;0.10;99.90
52275;DHT22;38228;50.940;4.024;2023-03-01T05:55:33;0.10;99.90
52275;DHT22;38228;50.940;4.024;2023-03-01T05:57:59;0.10;99.90
52275;DHT22;38228;50.940;4.024;2023-03-01T06:00:25;0.20;99.90
52275;DHT22;38228;50.940;4.024;2023-03-01T06:02:52;0.20;99.90
52275;DHT22;38228;50.940;4.024;2023-03-01T06:05:18;0.20;99.90
52275;DHT22;38228;50.940;4.024;2023-03-01T06:07:44;0.20;99.90
52275;DHT22;38228;50.940;4.024;2023-03-01T06:10:10;0.20;99.90
52275;DHT22;38228;50.940;4.024;2023-03-01T06:12:36;0.20;99.90
52275;DHT22;38228;50.940;4.024;2023-03-01T06:15:02;0.10;99.90
52275;DHT22;38228;50.940;4.024;2023-03-01T06:17:29;0.00;99.90
52275;DHT22;38228;50.940;4.024;2023-03-01T06:19:55;0.00;99.90
52275;DHT22;38228;50.940;4.024;2023-03-01T06:22:20;0.20;99.90
52275;DHT22;38228;50.940;4.024;2023-03-01T06:24:46;-0.30;99.90
52275;DHT22;38228;50.940;4.024;2023-03-01T06:27:11;-0.80;99.90
52275;DHT22;38228;50.940;4.024;2023-03-01T06:29:37;-0.90;99.90
52275;DHT22;38228;50.940;4.024;2023-03-01T06:32:03;-1.10;99.90
52275;DHT22;38228;50.940;4.024;2023-03-01T06:34:28;-1.30;99.90
52275;DHT22;38228;50.940;4.024;2023-03-01T06:36:54;-1.30;99.90
52275;DHT22;38228;50.940;4.024;2023-03-01T06:39:19;-1.20;99.90
52275;DHT22;38228;50.940;4.024;2023-03-01T06:41:45;-1.00;99.90
52275;DHT22;38228;50.940;4.024;2023-03-01T06:44:10;-1.10;99.90
52275;DHT22;38228;50.940;4.024;2023-03-01T06:46:36;-1.10;99.90
52275;DHT22;38228;50.940;4.024;2023-03-01T06:49:01;-1.10;99.90
52275;DHT22;38228;50.940;4.024;2023-03-01T06:51:29;-1.20;99.90
52275;DHT22;38228;50.940;4.024;2023-03-01T06:53:55;-1.20;99.90
52275;DHT22;38228;50.940;4.024;2023-03-01T06:56:20;-1.20;99.90
52275;DHT22;38228;50.940;4.024;2023-03-01T06:58:46;-1.00;99.90
52275;DHT22;38228;50.940;4.024;2023-03-01T07:01:12;-0.90;99.90
52275;DHT22;38228;50.940;4.024;2023-03-01T07:03:37;-0.90;99.90
52275;DHT22;38228;50.940;4.024;2023-03-01T07:06:03;-1.00;99.90
52275;DHT22;38228;50.940;4.024;2023-03-01T07:08:28;-1.00;99.90
52275;DHT22;38228;50.940;4.024;2023-03-01T07:10:55;-1.00;99.90
52275;DHT22;38228;50.940;4.024;2023-03-01T07:13:20;-1.00;99.90
52275;DHT22;38228;50.940;4.024;2023-03-01T07:15:46;-1.00;99.90
52275;DHT22;38228;50.940;4.024;2023-03-01T07:18:12;-0.90;99.90
52275;DHT22;38228;50.940;4.024;2023-03-01T07:20:37;-0.60;99.90
52275;DHT22;38228;50.940;4.024;2023-03-01T07:23:03;-0.50;99.90
52275;DHT22;38228;50.940;4.024;2023-03-01T07:25:30;-0.40;99.90
52275;DHT22;38228;50.940;4.024;2023-03-01T07:27:57;-0.50;99.90
52275;DHT22;38228;50.940;4.024;2023-03-01T07:30:23;-0.30;99.90
52275;DHT22;38228;50.940;4.024;2023-03-01T07:32:51;0.10;99.90
52275;DHT22;38228;50.940;4.024;2023-03-01T07:35:16;0.50;99.90
52275;DHT22;38228;50.940;4.024;2023-03-01T07:37:42;0.60;99.90
52275;DHT22;38228;50.940;4.024;2023-03-01T07:40:08;0.50;99.90
52275;DHT22;38228;50.940;4.024;2023-03-01T07:42:34;0.50;99.90
52275;DHT22;38228;50.940;4.024;2023-03-01T07:44:59;0.80;99.90
52275;DHT22;38228;50.940;4.024;2023-03-01T07:47:25;1.10;99.90
52275;DHT22;38228;50.940;4.024;2023-03-01T07:49:50;1.10;99.90
52275;DHT22;38228;50.940;4.024;2023-03-01T07:52:16;1.30;99.90
52275;DHT22;38228;50.940;4.024;2023-03-01T07:54:42;1.40;99.90
52275;DHT22;38228;50.940;4.024;2023-03-01T07:57:08;1.40;99.90
52275;DHT22;38228;50.940;4.024;2023-03-01T07:59:33;1.30;99.90
52275;DHT22;38228;50.940;4.024;2023-03-01T08:01:59;1.30;99.90
52275;DHT22;38228;50.940;4.024;2023-03-01T08:04:25;1.20;99.90
52275;DHT22;38228;50.940;4.024;2023-03-01T08:06:52;1.40;99.90
52275;DHT22;38228;50.940;4.024;2023-03-01T08:09:17;1.70;99.90
52275;DHT22;38228;50.940;4.024;2023-03-01T08:11:43;1.90;99.90
52275;DHT22;38228;50.940;4.024;2023-03-01T08:14:09;2.00;99.90
52275;DHT22;38228;50.940;4.024;2023-03-01T08:16:35;2.10;99.90
52275;DHT22;38228;50.940;4.024;2023-03-01T08:19:11;2.00;99.90
52275;DHT22;38228;50.940;4.024;2023-03-01T08:21:37;2.00;99.90
52275;DHT22;38228;50.940;4.024;2023-03-01T08:24:03;2.00;99.90
52275;DHT22;38228;50.940;4.024;2023-03-01T08:26:29;2.00;99.90
52275;DHT22;38228;50.940;4.024;2023-03-01T08:28:54;2.00;99.90
52275;DHT22;38228;50.940;4.024;2023-03-01T08:33:46;2.20;99.90
52275;DHT22;38228;50.940;4.024;2023-03-01T08:36:21;2.40;99.90
52275;DHT22;38228;50.940;4.024;2023-03-01T08:38:47;2.60;99.90
52275;DHT22;38228;50.940;4.024;2023-03-01T08:41:13;2.70;99.90
52275;DHT22;38228;50.940;4.024;2023-03-01T08:43:39;2.60;99.90
52275;DHT22;38228;50.940;4.024;2023-03-01T08:46:05;2.60;99.90
52275;DHT22;38228;50.940;4.024;2023-03-01T08:48:30;2.70;99.90
52275;DHT22;38228;50.940;4.024;2023-03-01T08:50:56;2.80;99.90
52275;DHT22;38228;50.940;4.024;2023-03-01T08:53:22;2.80;99.90
52275;DHT22;38228;50.940;4.024;2023-03-01T08:55:47;2.80;99.90
52275;DHT22;38228;50.940;4.024;2023-03-01T08:58:13;2.80;99.90
52275;DHT22;38228;50.940;4.024;2023-03-01T09:00:38;2.90;99.90
52275;DHT22;38228;50.940;4.024;2023-03-01T09:03:05;2.90;99.90
52275;DHT22;38228;50.940;4.024;2023-03-01T09:05:31;2.90;99.90
52275;DHT22;38228;50.940;4.024;2023-03-01T09:07:57;3.00;99.90
52275;DHT22;38228;50.940;4.024;2023-03-01T09:10:22;2.90;99.90
52275;DHT22;38228;50.940;4.024;2023-03-01T09:12:48;3.00;99.90
52275;DHT22;38228;50.940;4.024;2023-03-01T09:15:13;3.10;99.90
52275;DHT22;38228;50.940;4.024;2023-03-01T09:17:39;3.10;99.90
52275;DHT22;38228;50.940;4.024;2023-03-01T09:20:05;3.20;99.90
52275;DHT22;38228;50.940;4.024;2023-03-01T09:22:32;3.30;99.90
52275;DHT22;38228;50.940;4.024;2023-03-01T09:24:58;3.40;99.90
52275;DHT22;38228;50.940;4.024;2023-03-01T09:27:24;3.50;99.90
52275;DHT22;38228;50.940;4.024;2023-03-01T09:29:50;3.70;99.90
52275;DHT22;38228;50.940;4.024;2023-03-01T09:32:15;3.70;99.90
52275;DHT22;38228;50.940;4.024;2023-03-01T09:34:41;3.80;99.90
52275;DHT22;38228;50.940;4.024;2023-03-01T09:37:26;3.80;99.90
52275;DHT22;38228;50.940;4.024;2023-03-01T09:39:51;3.90;99.90
52275;DHT22;38228;50.940;4.024;2023-03-01T09:42:17;3.80;99.90
52275;DHT22;38228;50.940;4.024;2023-03-01T09:44:45;3.70;99.90
52275;DHT22;38228;50.940;4.024;2023-03-01T09:47:20;3.80;99.90
52275;DHT22;38228;50.940;4.024;2023-03-01T09:53:09;4.10;99.90
52275;DHT22;38228;50.940;4.024;2023-03-01T09:57:59;4.20;99.90
52275;DHT22;38228;50.940;4.024;2023-03-01T10:03:13;4.20;99.90
52275;DHT22;38228;50.940;4.024;2023-03-01T10:10:51;4.40;99.90
52275;DHT22;38228;50.940;4.024;2023-03-01T10:16:14;4.50;99.90
52275;DHT22;38228;50.940;4.024;2023-03-01T10:18:42;4.70;99.90
52275;DHT22;38228;50.940;4.024;2023-03-01T10:21:15;4.50;99.90
52275;DHT22;38228;50.940;4.024;2023-03-01T10:23:42;4.60;99.90
52275;DHT22;38228;50.940;4.024;2023-03-01T10:29:08;4.70;99.90
52275;DHT22;38228;50.940;4.024;2023-03-01T10:31:44;4.60;99.90
52275;DHT22;38228;50.940;4.024;2023-03-01T10:34:18;4.60;99.90
52275;DHT22;38228;50.940;4.024;2023-03-01T10:36:45;4.70;99.90
52275;DHT22;38228;50.940;4.024;2023-03-01T10:39:15;4.70;99.90
52275;DHT22;38228;50.940;4.024;2023-03-01T10:42:19;4.90;99.90
52275;DHT22;38228;50.940;4.024;2023-03-01T10:44:43;4.90;99.90
52275;DHT22;38228;50.940;4.024;2023-03-01T10:47:27;5.10;99.90
52275;DHT22;38228;50.940;4.024;2023-03-01T10:49:57;5.20;99.90
52275;DHT22;38228;50.940;4.024;2023-03-01T10:52:24;5.20;99.90
52275;DHT22;38228;50.940;4.024;2023-03-01T10:54:57;5.30;99.90
52275;DHT22;38228;50.940;4.024;2023-03-01T10:57:39;5.30;99.90
52275;DHT22;38228;50.940;4.024;2023-03-01T11:02:35;5.20;99.90
52275;DHT22;38228;50.940;4.024;2023-03-01T11:05:13;5.30;99.90
52275;DHT22;38228;50.940;4.024;2023-03-01T11:07:51;5.40;99.90
52275;DHT22;38228;50.940;4.024;2023-03-01T11:10:21;5.50;99.90
52275;DHT22;38228;50.940;4.024;2023-03-01T11:12:47;5.70;99.90
52275;DHT22;38228;50.940;4.024;2023-03-01T11:15:26;5.80;99.90
52275;DHT22;38228;50.940;4.024;2023-03-01T11:17:52;5.80;99.90
52275;DHT22;38228;50.940;4.024;2023-03-01T11:20:27;5.90;99.90
52275;DHT22;38228;50.940;4.024;2023-03-01T11:22:55;5.80;99.90
52275;DHT22;38228;50.940;4.024;2023-03-01T11:25:24;5.90;99.90
52275;DHT22;38228;50.940;4.024;2023-03-01T11:27:49;5.80;99.90
52275;DHT22;38228;50.940;4.024;2023-03-01T11:30:29;5.80;99.90
52275;DHT22;38228;50.940;4.024;2023-03-01T11:35:25;5.80;99.90
52275;DHT22;38228;50.940;4.024;2023-03-01T11:40:32;5.90;99.90
52275;DHT22;38228;50.940;4.024;2023-03-01T11:45:39;6.30;99.90
52275;DHT22;38228;50.940;4.024;2023-03-01T11:48:10;6.50;99.90
52275;DHT22;38228;50.940;4.024;2023-03-01T11:50:41;6.70;99.90
52275;DHT22;38228;50.940;4.024;2023-03-01T12:08:41;6.50;99.90
52275;DHT22;38228;50.940;4.024;2023-03-01T12:16:42;6.40;99.90
52275;DHT22;38228;50.940;4.024;2023-03-01T12:21:57;6.60;99.90
52275;DHT22;38228;50.940;4.024;2023-03-01T12:24:23;6.50;99.90
52275;DHT22;38228;50.940;4.024;2023-03-01T12:31:48;6.70;99.90
52275;DHT22;38228;50.940;4.024;2023-03-01T12:47:43;7.00;98.60
52275;DHT22;38228;50.940;4.024;2023-03-01T12:52:39;7.00;98.20
52275;DHT22;38228;50.940;4.024;2023-03-01T12:55:08;7.20;98.10
52275;DHT22;38228;50.940;4.024;2023-03-01T12:57:42;7.20;97.80
52275;DHT22;38228;50.940;4.024;2023-03-01T13:00:26;7.20;97.90
52275;DHT22;38228;50.940;4.024;2023-03-01T13:03:00;7.10;98.00
52275;DHT22;38228;50.940;4.024;2023-03-01T13:05:54;7.10;98.40
52275;DHT22;38228;50.940;4.024;2023-03-01T13:11:02;7.10;98.20
52275;DHT22;38228;50.940;4.024;2023-03-01T13:13:28;7.10;97.90
52275;DHT22;38228;50.940;4.024;2023-03-01T13:15:54;7.20;97.30
52275;DHT22;38228;50.940;4.024;2023-03-01T13:20:52;7.10;97.20
52275;DHT22;38228;50.940;4.024;2023-03-01T13:31:08;7.10;97.50
52275;DHT22;38228;50.940;4.024;2023-03-01T13:33:53;7.10;97.50
52275;DHT22;38228;50.940;4.024;2023-03-01T13:37:01;7.20;96.70
52275;DHT22;38228;50.940;4.024;2023-03-01T13:39:27;7.30;96.70
52275;DHT22;38228;50.940;4.024;2023-03-01T13:41:54;7.50;96.50
52275;DHT22;38228;50.940;4.024;2023-03-01T13:49:29;7.60;95.70
52275;DHT22;38228;50.940;4.024;2023-03-01T13:51:58;7.70;96.30
52275;DHT22;38228;50.940;4.024;2023-03-01T13:54:31;7.70;95.80
52275;DHT22;38228;50.940;4.024;2023-03-01T13:56:58;7.80;95.80
52275;DHT22;38228;50.940;4.024;2023-03-01T13:59:24;7.90;95.90
52275;DHT22;38228;50.940;4.024;2023-03-01T14:01:58;8.00;95.90
52275;DHT22;38228;50.940;4.024;2023-03-01T14:04:25;8.10;95.80
52275;DHT22;38228;50.940;4.024;2023-03-01T14:06:52;8.10;95.20
52275;DHT22;38228;50.940;4.024;2023-03-01T14:09:33;8.20;95.40
52275;DHT22;38228;50.940;4.024;2023-03-01T14:14:29;8.50;94.50
52275;DHT22;38228;50.940;4.024;2023-03-01T14:17:00;8.60;94.20
52275;DHT22;38228;50.940;4.024;2023-03-01T14:19:31;8.80;94.20
52275;DHT22;38228;50.940;4.024;2023-03-01T14:22:04;8.90;94.20
52275;DHT22;38228;50.940;4.024;2023-03-01T14:24:31;8.80;94.30
52275;DHT22;38228;50.940;4.024;2023-03-01T14:27:00;8.80;94.70
52275;DHT22;38228;50.940;4.024;2023-03-01T14:29:26;9.00;94.80
52275;DHT22;38228;50.940;4.024;2023-03-01T14:31:52;9.20;93.70
52275;DHT22;38228;50.940;4.024;2023-03-01T14:34:21;9.20;93.80
52275;DHT22;38228;50.940;4.024;2023-03-01T14:36:47;9.50;93.60
52275;DHT22;38228;50.940;4.024;2023-03-01T14:39:17;9.60;93.20
52275;DHT22;38228;50.940;4.024;2023-03-01T14:41:43;9.50;92.80
52275;DHT22;38228;50.940;4.024;2023-03-01T14:44:12;9.40;92.60
52275;DHT22;38228;50.940;4.024;2023-03-01T14:46:40;9.40;92.70
52275;DHT22;38228;50.940;4.024;2023-03-01T14:49:11;9.40;92.50
52275;DHT22;38228;50.940;4.024;2023-03-01T14:51:38;9.50;92.30
52275;DHT22;38228;50.940;4.024;2023-03-01T14:54:18;9.70;91.90
52275;DHT22;38228;50.940;4.024;2023-03-01T14:56:45;9.80;91.90
52275;DHT22;38228;50.940;4.024;2023-03-01T14:59:11;10.10;91.60
52275;DHT22;38228;50.940;4.024;2023-03-01T15:01:37;10.40;91.00
52275;DHT22;38228;50.940;4.024;2023-03-01T15:04:04;10.30;90.50
52275;DHT22;38228;50.940;4.024;2023-03-01T15:06:30;10.00;90.60
52275;DHT22;38228;50.940;4.024;2023-03-01T15:08:55;10.10;90.60
52275;DHT22;38228;50.940;4.024;2023-03-01T15:11:27;10.40;90.70
52275;DHT22;38228;50.940;4.024;2023-03-01T15:13:53;10.50;90.10
52275;DHT22;38228;50.940;4.024;2023-03-01T15:16:21;10.70;90.10
52275;DHT22;38228;50.940;4.024;2023-03-01T15:18:48;10.80;89.00
52275;DHT22;38228;50.940;4.024;2023-03-01T15:21:25;10.80;88.50
52275;DHT22;38228;50.940;4.024;2023-03-01T15:23:53;10.80;88.20
52275;DHT22;38228;50.940;4.024;2023-03-01T15:28:51;10.40;88.60
52275;DHT22;38228;50.940;4.024;2023-03-01T15:31:33;9.90;89.70
52275;DHT22;38228;50.940;4.024;2023-03-01T15:34:07;9.40;90.60
52275;DHT22;38228;50.940;4.024;2023-03-01T15:36:37;8.80;90.90
52275;DHT22;38228;50.940;4.024;2023-03-01T15:39:04;8.40;91.50
52275;DHT22;38228;50.940;4.024;2023-03-01T15:41:47;8.10;92.30
52275;DHT22;38228;50.940;4.024;2023-03-01T15:46:44;8.00;92.90
52275;DHT22;38228;50.940;4.024;2023-03-01T15:49:25;8.00;92.90
52275;DHT22;38228;50.940;4.024;2023-03-01T15:51:53;7.90;93.10
52275;DHT22;38228;50.940;4.024;2023-03-01T15:54:21;7.90;92.90
52275;DHT22;38228;50.940;4.024;2023-03-01T15:56:47;7.80;93.10
52275;DHT22;38228;50.940;4.024;2023-03-01T15:59:13;7.70;93.20
52275;DHT22;38228;50.940;4.024;2023-03-01T16:01:39;7.50;93.20
52275;DHT22;38228;50.940;4.024;2023-03-01T16:04:05;7.40;93.50
52275;DHT22;38228;50.940;4.024;2023-03-01T16:06:31;7.30;93.80
52275;DHT22;38228;50.940;4.024;2023-03-01T16:08:56;7.30;94.30
52275;DHT22;38228;50.940;4.024;2023-03-01T16:11:22;7.40;94.10
52275;DHT22;38228;50.940;4.024;2023-03-01T16:13:48;7.40;94.10
52275;DHT22;38228;50.940;4.024;2023-03-01T16:16:15;7.60;93.80
52275;DHT22;38228;50.940;4.024;2023-03-01T16:18:42;7.50;93.50
52275;DHT22;38228;50.940;4.024;2023-03-01T16:21:10;7.50;93.50
52275;DHT22;38228;50.940;4.024;2023-03-01T16:23:37;7.50;93.90
52275;DHT22;38228;50.940;4.024;2023-03-01T16:26:02;7.30;94.00
52275;DHT22;38228;50.940;4.024;2023-03-01T16:28:28;7.20;94.40
52275;DHT22;38228;50.940;4.024;2023-03-01T16:30:53;7.30;94.50
52275;DHT22;38228;50.940;4.024;2023-03-01T16:33:19;7.30;94.40
52275;DHT22;38228;50.940;4.024;2023-03-01T16:35:45;7.30;94.40
52275;DHT22;38228;50.940;4.024;2023-03-01T16:38:10;7.20;94.30
52275;DHT22;38228;50.940;4.024;2023-03-01T16:40:36;7.20;94.50
52275;DHT22;38228;50.940;4.024;2023-03-01T16:43:01;7.20;94.70
52275;DHT22;38228;50.940;4.024;2023-03-01T16:45:34;7.20;95.20
52275;DHT22;38228;50.940;4.024;2023-03-01T16:48:05;7.20;95.20
52275;DHT22;38228;50.940;4.024;2023-03-01T16:50:30;7.10;95.30
52275;DHT22;38228;50.940;4.024;2023-03-01T16:52:56;7.10;95.50
52275;DHT22;38228;50.940;4.024;2023-03-01T16:55:21;7.10;95.80
52275;DHT22;38228;50.940;4.024;2023-03-01T16:57:47;7.20;95.90
52275;DHT22;38228;50.940;4.024;2023-03-01T17:00:13;7.10;96.10
52275;DHT22;38228;50.940;4.024;2023-03-01T17:02:39;7.10;96.10
52275;DHT22;38228;50.940;4.024;2023-03-01T17:05:04;7.10;96.40
52275;DHT22;38228;50.940;4.024;2023-03-01T17:07:30;7.10;96.60
52275;DHT22;38228;50.940;4.024;2023-03-01T17:10:02;7.00;96.60
52275;DHT22;38228;50.940;4.024;2023-03-01T17:12:28;7.10;96.70
52275;DHT22;38228;50.940;4.024;2023-03-01T17:14:53;7.10;96.50
52275;DHT22;38228;50.940;4.024;2023-03-01T17:17:19;7.10;96.60
52275;DHT22;38228;50.940;4.024;2023-03-01T17:19:44;7.00;96.60
52275;DHT22;38228;50.940;4.024;2023-03-01T17:22:10;6.90;96.70
52275;DHT22;38228;50.940;4.024;2023-03-01T17:24:38;6.80;96.80
52275;DHT22;38228;50.940;4.024;2023-03-01T17:27:05;6.80;97.00
52275;DHT22;38228;50.940;4.024;2023-03-01T17:29:30;6.80;97.10
52275;DHT22;38228;50.940;4.024;2023-03-01T17:31:56;6.80;97.00
52275;DHT22;38228;50.940;4.024;2023-03-01T17:34:22;6.80;97.10
52275;DHT22;38228;50.940;4.024;2023-03-01T17:36:48;6.70;97.20